sensor_id;sensor_type;location;lat;lon;timestamp;pressure;altitude;pressure_sealevel;temperature;humidity
34177;BME280;20450;49.074;9.158;2023-06-14T00:00:05;99233.22;;;16.95;56.22
34177;BME280;20450;49.074;9.158;2023-06-14T00:02:33;99235.91;;;16.85;55.94
34177;BME280;20450;49.074;9.158;2023-06-14T00:05:00;99236.97;;;16.79;56.87
34177;BME280;20450;49.074;9.158;2023-06-14T00:07:34;99236.84;;;16.54;57.21
34177;BME280;20450;49.074;9.158;2023-06-14T00:10:02;99248.03;;;16.57;57.08
34177;BME280;20450;49.074;9.158;2023-06-14T00:12:31;99242.81;;;16.51;59.23
34177;BME280;20450;49.074;9.158;2023-06-14T00:14:58;99250.81;;;16.31;59.74
34177;BME280;20450;49.074;9.158;2023-06-14T00:17:25;99245.97;;;16.43;62.08
34177;BME280;20450;49.074;9.158;2023-06-14T00:19:53;99239.50;;;16.44;64.96
34177;BME280;20450;49.074;9.158;2023-06-14T00:22:20;99246.22;;;16.36;65.75
34177;BME280;20450;49.074;9.158;2023-06-14T00:24:47;99245.28;;;16.21;66.22
34177;BME280;20450;49.074;9.158;2023-06-14T00:27:14;99247.59;;;16.02;66.11
34177;BME280;20450;49.074;9.158;2023-06-14T00:29:42;99248.44;;;15.76;68.08
34177;BME280;20450;49.074;9.158;2023-06-14T00:32:09;99247.25;;;15.67;67.40
34177;BME280;20450;49.074;9.158;2023-06-14T00:34:36;99245.59;;;15.66;67.75
34177;BME280;20450;49.074;9.158;2023-06-14T00:37:04;99238.66;;;15.53;68.72
34177;BME280;20450;49.074;9.158;2023-06-14T00:39:31;99245.38;;;15.46;68.56
34177;BME280;20450;49.074;9.158;2023-06-14T00:41:59;99238.63;;;15.48;69.77
34177;BME280;20450;49.074;9.158;2023-06-14T00:44:26;99231.59;;;15.52;68.98
34177;BME280;20450;49.074;9.158;2023-06-14T00:46:54;99242.53;;;15.57;69.41
34177;BME280;20450;49.074;9.158;2023-06-14T00:49:22;99238.22;;;15.61;69.66
34177;BME280;20450;49.074;9.158;2023-06-14T00:51:50;99237.69;;;15.64;68.54
34177;BME280;20450;49.074;9.158;2023-06-14T00:54:18;99237.50;;;15.71;68.61
34177;BME280;20450;49.074;9.158;2023-06-14T00:56:45;99237.97;;;15.63;68.26
34177;BME280;20450;49.074;9.158;2023-06-14T00:59:12;99234.91;;;15.59;68.36
34177;BME280;20450;49.074;9.158;2023-06-14T01:01:39;99238.00;;;15.68;68.32
34177;BME280;20450;49.074;9.158;2023-06-14T01:04:09;99245.41;;;15.73;67.72
34177;BME280;20450;49.074;9.158;2023-06-14T01:06:44;99244.66;;;15.77;69.13
34177;BME280;20450;49.074;9.158;2023-06-14T01:09:27;99247.13;;;15.84;68.03
34177;BME280;20450;49.074;9.158;2023-06-14T01:12:07;99250.38;;;15.81;67.18
34177;BME280;20450;49.074;9.158;2023-06-14T01:14:41;99247.66;;;15.81;68.15
34177;BME280;20450;49.074;9.158;2023-06-14T01:17:08;99252.16;;;15.65;68.46
34177;BME280;20450;49.074;9.158;2023-06-14T01:19:37;99249.81;;;15.52;67.03
34177;BME280;20450;49.074;9.158;2023-06-14T01:22:05;99249.44;;;15.43;68.21
34177;BME280;20450;49.074;9.158;2023-06-14T01:24:34;99246.44;;;15.40;70.03
34177;BME280;20450;49.074;9.158;2023-06-14T01:27:02;99253.66;;;15.34;69.81
34177;BME280;20450;49.074;9.158;2023-06-14T01:29:30;99255.41;;;15.19;70.52
34177;BME280;20450;49.074;9.158;2023-06-14T01:31:57;99256.41;;;15.13;71.20
34177;BME280;20450;49.074;9.158;2023-06-14T01:34:24;99255.91;;;15.16;71.04
34177;BME280;20450;49.074;9.158;2023-06-14T01:36:52;99254.31;;;15.20;71.15
34177;BME280;20450;49.074;9.158;2023-06-14T01:39:21;99252.78;;;15.29;70.77
34177;BME280;20450;49.074;9.158;2023-06-14T01:41:51;99257.91;;;15.25;68.58
34177;BME280;20450;49.074;9.158;2023-06-14T01:44:20;99257.63;;;15.22;67.97
34177;BME280;20450;49.074;9.158;2023-06-14T01:46:50;99265.19;;;15.20;68.20
34177;BME280;20450;49.074;9.158;2023-06-14T01:49:18;99261.97;;;15.23;67.99
34177;BME280;20450;49.074;9.158;2023-06-14T01:51:46;99260.44;;;15.10;65.77
34177;BME280;20450;49.074;9.158;2023-06-14T01:54:14;99262.47;;;14.98;64.63
34177;BME280;20450;49.074;9.158;2023-06-14T01:56:41;99268.56;;;14.67;63.65
34177;BME280;20450;49.074;9.158;2023-06-14T01:59:10;99264.59;;;14.37;64.49
34177;BME280;20450;49.074;9.158;2023-06-14T02:01:38;99268.78;;;14.44;64.34
34177;BME280;20450;49.074;9.158;2023-06-14T02:04:31;99272.63;;;14.65;63.68
34177;BME280;20450;49.074;9.158;2023-06-14T02:07:15;99262.78;;;14.80;69.13
34177;BME280;20450;49.074;9.158;2023-06-14T02:09:42;99266.94;;;14.66;70.64
34177;BME280;20450;49.074;9.158;2023-06-14T02:12:09;99263.47;;;14.71;70.36
34177;BME280;20450;49.074;9.158;2023-06-14T02:14:38;99266.50;;;14.74;70.45
34177;BME280;20450;49.074;9.158;2023-06-14T02:17:06;99270.53;;;14.72;69.88
34177;BME280;20450;49.074;9.158;2023-06-14T02:19:33;99275.72;;;14.73;69.35
34177;BME280;20450;49.074;9.158;2023-06-14T02:22:00;99281.00;;;14.80;68.96
34177;BME280;20450;49.074;9.158;2023-06-14T02:24:28;99275.44;;;14.91;68.87
34177;BME280;20450;49.074;9.158;2023-06-14T02:26:55;99268.22;;;15.02;68.75
34177;BME280;20450;49.074;9.158;2023-06-14T02:29:22;99268.94;;;15.14;68.66
34177;BME280;20450;49.074;9.158;2023-06-14T02:31:50;99273.78;;;15.12;68.38
34177;BME280;20450;49.074;9.158;2023-06-14T02:34:20;99276.09;;;15.20;68.64
34177;BME280;20450;49.074;9.158;2023-06-14T02:36:47;99272.66;;;15.08;67.46
34177;BME280;20450;49.074;9.158;2023-06-14T02:39:14;99276.28;;;14.92;67.73
34177;BME280;20450;49.074;9.158;2023-06-14T02:41:43;99277.38;;;14.74;68.65
34177;BME280;20450;49.074;9.158;2023-06-14T02:44:10;99276.44;;;14.47;68.07
34177;BME280;20450;49.074;9.158;2023-06-14T02:46:36;99278.66;;;14.34;69.73
34177;BME280;20450;49.074;9.158;2023-06-14T02:49:05;99277.28;;;14.31;69.09
34177;BME280;20450;49.074;9.158;2023-06-14T02:51:32;99272.13;;;14.18;69.34
34177;BME280;20450;49.074;9.158;2023-06-14T02:53:59;99273.31;;;14.39;69.25
34177;BME280;20450;49.074;9.158;2023-06-14T02:56:26;99273.53;;;14.54;68.85
34177;BME280;20450;49.074;9.158;2023-06-14T02:58:53;99272.44;;;14.71;68.84
34177;BME280;20450;49.074;9.158;2023-06-14T03:01:20;99277.31;;;14.69;68.54
34177;BME280;20450;49.074;9.158;2023-06-14T03:03:48;99280.59;;;14.71;67.76
34177;BME280;20450;49.074;9.158;2023-06-14T03:06:22;99282.88;;;14.79;68.89
34177;BME280;20450;49.074;9.158;2023-06-14T03:08:50;99277.53;;;14.84;69.02
34177;BME280;20450;49.074;9.158;2023-06-14T03:11:17;99284.28;;;14.82;70.93
34177;BME280;20450;49.074;9.158;2023-06-14T03:13:44;99290.66;;;14.71;72.02
34177;BME280;20450;49.074;9.158;2023-06-14T03:16:11;99274.69;;;14.58;73.47
34177;BME280;20450;49.074;9.158;2023-06-14T03:18:40;99275.50;;;14.58;73.22
34177;BME280;20450;49.074;9.158;2023-06-14T03:21:07;99286.13;;;14.60;72.53
34177;BME280;20450;49.074;9.158;2023-06-14T03:23:35;99287.09;;;14.70;71.33
34177;BME280;20450;49.074;9.158;2023-06-14T03:26:03;99292.13;;;14.78;70.88
34177;BME280;20450;49.074;9.158;2023-06-14T03:28:30;99285.28;;;14.76;69.41
34177;BME280;20450;49.074;9.158;2023-06-14T03:30:58;99290.56;;;14.66;69.24
34177;BME280;20450;49.074;9.158;2023-06-14T03:33:28;99296.19;;;14.59;69.33
34177;BME280;20450;49.074;9.158;2023-06-14T03:35:55;99291.91;;;14.63;69.56
34177;BME280;20450;49.074;9.158;2023-06-14T03:38:23;99295.84;;;14.72;68.30
34177;BME280;20450;49.074;9.158;2023-06-14T03:40:52;99299.50;;;14.45;68.34
34177;BME280;20450;49.074;9.158;2023-06-14T03:43:19;99304.16;;;14.49;67.78
34177;BME280;20450;49.074;9.158;2023-06-14T03:45:47;99308.16;;;14.42;67.00
34177;BME280;20450;49.074;9.158;2023-06-14T03:48:15;99304.94;;;14.28;66.56
34177;BME280;20450;49.074;9.158;2023-06-14T03:50:42;99308.63;;;14.55;65.43
34177;BME280;20450;49.074;9.158;2023-06-14T03:53:10;99314.25;;;14.87;64.18
34177;BME280;20450;49.074;9.158;2023-06-14T03:55:42;99319.53;;;15.15;65.39
34177;BME280;20450;49.074;9.158;2023-06-14T03:58:14;99322.75;;;15.50;65.23
34177;BME280;20450;49.074;9.158;2023-06-14T04:00:41;99323.41;;;15.84;66.17
34177;BME280;20450;49.074;9.158;2023-06-14T04:03:08;99322.28;;;16.06;66.33
34177;BME280;20450;49.074;9.158;2023-06-14T04:05:35;99323.09;;;16.38;65.42
34177;BME280;20450;49.074;9.158;2023-06-14T04:08:02;99324.88;;;16.49;64.02
34177;BME280;20450;49.074;9.158;2023-06-14T04:10:31;99326.41;;;16.72;62.75
34177;BME280;20450;49.074;9.158;2023-06-14T04:12:58;99319.84;;;16.68;61.85
34177;BME280;20450;49.074;9.158;2023-06-14T04:15:26;99329.31;;;16.97;61.71
34177;BME280;20450;49.074;9.158;2023-06-14T04:17:55;99322.16;;;17.42;59.39
34177;BME280;20450;49.074;9.158;2023-06-14T04:20:23;99325.34;;;17.86;58.51
34177;BME280;20450;49.074;9.158;2023-06-14T04:22:50;99328.44;;;18.30;57.13
34177;BME280;20450;49.074;9.158;2023-06-14T04:25:17;99335.88;;;18.59;53.77
34177;BME280;20450;49.074;9.158;2023-06-14T04:27:50;99344.53;;;18.21;53.89
34177;BME280;20450;49.074;9.158;2023-06-14T04:30:17;99345.72;;;18.40;53.32
34177;BME280;20450;49.074;9.158;2023-06-14T04:32:50;99349.81;;;18.63;52.14
34177;BME280;20450;49.074;9.158;2023-06-14T04:35:18;99353.09;;;18.70;51.59
34177;BME280;20450;49.074;9.158;2023-06-14T04:37:46;99345.69;;;18.75;51.46
34177;BME280;20450;49.074;9.158;2023-06-14T04:40:13;99340.22;;;18.75;51.84
34177;BME280;20450;49.074;9.158;2023-06-14T04:42:40;99355.28;;;18.88;51.16
34177;BME280;20450;49.074;9.158;2023-06-14T04:45:09;99356.91;;;18.84;51.82
34177;BME280;20450;49.074;9.158;2023-06-14T04:47:38;99361.56;;;18.93;51.04
34177;BME280;20450;49.074;9.158;2023-06-14T04:50:08;99369.22;;;19.01;52.41
34177;BME280;20450;49.074;9.158;2023-06-14T04:52:36;99376.31;;;19.02;54.63
34177;BME280;20450;49.074;9.158;2023-06-14T04:55:05;99365.94;;;18.54;57.92
34177;BME280;20450;49.074;9.158;2023-06-14T04:57:32;99373.28;;;18.34;59.23
34177;BME280;20450;49.074;9.158;2023-06-14T05:00:00;99370.06;;;18.57;56.16
34177;BME280;20450;49.074;9.158;2023-06-14T05:02:30;99383.41;;;18.28;56.20
34177;BME280;20450;49.074;9.158;2023-06-14T05:04:58;99384.47;;;18.27;53.21
34177;BME280;20450;49.074;9.158;2023-06-14T05:07:27;99384.00;;;18.55;52.97
34177;BME280;20450;49.074;9.158;2023-06-14T05:09:54;99376.34;;;18.87;50.45
34177;BME280;20450;49.074;9.158;2023-06-14T05:12:21;99370.00;;;19.17;48.77
34177;BME280;20450;49.074;9.158;2023-06-14T05:14:48;99376.22;;;19.52;48.61
34177;BME280;20450;49.074;9.158;2023-06-14T05:17:18;99375.53;;;19.91;47.08
34177;BME280;20450;49.074;9.158;2023-06-14T05:19:45;99380.88;;;20.21;46.34
34177;BME280;20450;49.074;9.158;2023-06-14T05:22:12;99380.16;;;20.49;45.46
34177;BME280;20450;49.074;9.158;2023-06-14T05:24:40;99374.97;;;20.76;46.03
34177;BME280;20450;49.074;9.158;2023-06-14T05:27:07;99381.63;;;21.32;45.87
34177;BME280;20450;49.074;9.158;2023-06-14T05:29:34;99371.69;;;21.83;42.63
34177;BME280;20450;49.074;9.158;2023-06-14T05:32:01;99376.66;;;22.42;42.19
34177;BME280;20450;49.074;9.158;2023-06-14T05:34:28;99374.13;;;22.82;41.01
34177;BME280;20450;49.074;9.158;2023-06-14T05:36:55;99379.56;;;23.47;39.54
34177;BME280;20450;49.074;9.158;2023-06-14T05:39:22;99376.84;;;24.01;37.66
34177;BME280;20450;49.074;9.158;2023-06-14T05:41:50;99387.16;;;24.09;36.94
34177;BME280;20450;49.074;9.158;2023-06-14T05:44:17;99382.25;;;24.19;35.96
34177;BME280;20450;49.074;9.158;2023-06-14T05:46:44;99385.63;;;24.52;35.82
34177;BME280;20450;49.074;9.158;2023-06-14T05:49:11;99388.97;;;25.07;34.54
34177;BME280;20450;49.074;9.158;2023-06-14T05:51:38;99386.78;;;25.48;34.07
34177;BME280;20450;49.074;9.158;2023-06-14T05:54:06;99382.16;;;26.04;32.79
34177;BME280;20450;49.074;9.158;2023-06-14T05:56:34;99382.81;;;25.32;33.07
34177;BME280;20450;49.074;9.158;2023-06-14T05:59:02;99388.38;;;26.10;33.59
34177;BME280;20450;49.074;9.158;2023-06-14T06:05:18;99396.91;;;25.52;33.71
34177;BME280;20450;49.074;9.158;2023-06-14T06:07:46;99390.81;;;26.11;32.43
34177;BME280;20450;49.074;9.158;2023-06-14T06:10:13;99389.22;;;26.36;31.41
34177;BME280;20450;49.074;9.158;2023-06-14T06:12:41;99386.47;;;26.87;31.17
34177;BME280;20450;49.074;9.158;2023-06-14T06:15:10;99394.22;;;27.45;30.66
34177;BME280;20450;49.074;9.158;2023-06-14T06:17:38;99397.56;;;27.67;29.67
34177;BME280;20450;49.074;9.158;2023-06-14T06:20:20;99397.31;;;27.89;30.20
34177;BME280;20450;49.074;9.158;2023-06-14T06:22:47;99398.44;;;27.51;29.73
34177;BME280;20450;49.074;9.158;2023-06-14T06:25:14;99395.25;;;26.38;33.28
34177;BME280;20450;49.074;9.158;2023-06-14T06:27:42;99399.53;;;26.78;31.33
34177;BME280;20450;49.074;9.158;2023-06-14T06:30:12;99404.41;;;27.70;30.46
34177;BME280;20450;49.074;9.158;2023-06-14T06:32:39;99410.50;;;25.18;33.98
34177;BME280;20450;49.074;9.158;2023-06-14T06:35:07;99406.22;;;25.56;34.01
34177;BME280;20450;49.074;9.158;2023-06-14T06:37:34;99400.16;;;25.46;33.32
34177;BME280;20450;49.074;9.158;2023-06-14T06:40:01;99412.88;;;25.94;32.46
34177;BME280;20450;49.074;9.158;2023-06-14T06:42:27;99410.66;;;26.13;32.36
34177;BME280;20450;49.074;9.158;2023-06-14T06:44:57;99418.72;;;25.01;33.29
34177;BME280;20450;49.074;9.158;2023-06-14T06:47:26;99418.41;;;23.77;36.36
34177;BME280;20450;49.074;9.158;2023-06-14T06:49:56;99416.06;;;24.74;35.18
34177;BME280;20450;49.074;9.158;2023-06-14T06:52:23;99418.84;;;25.79;33.87
34177;BME280;20450;49.074;9.158;2023-06-14T06:54:50;99422.13;;;25.90;32.49
34177;BME280;20450;49.074;9.158;2023-06-14T06:57:17;99413.41;;;26.05;32.46
34177;BME280;20450;49.074;9.158;2023-06-14T06:59:44;99420.97;;;24.28;36.75
34177;BME280;20450;49.074;9.158;2023-06-14T07:02:11;99422.03;;;25.34;35.48
34177;BME280;20450;49.074;9.158;2023-06-14T07:04:39;99429.19;;;25.13;35.73
34177;BME280;20450;49.074;9.158;2023-06-14T07:10:28;99426.16;;;25.45;34.78
34177;BME280;20450;49.074;9.158;2023-06-14T07:12:55;99422.56;;;25.75;34.38
34177;BME280;20450;49.074;9.158;2023-06-14T07:15:22;99421.59;;;26.18;33.57
34177;BME280;20450;49.074;9.158;2023-06-14T07:17:49;99426.28;;;26.01;34.90
34177;BME280;20450;49.074;9.158;2023-06-14T07:24:23;99438.78;;;24.08;37.73
34177;BME280;20450;49.074;9.158;2023-06-14T07:26:51;99449.44;;;24.99;37.10
34177;BME280;20450;49.074;9.158;2023-06-14T07:29:18;99449.97;;;23.71;37.26
34177;BME280;20450;49.074;9.158;2023-06-14T07:31:45;99446.00;;;22.02;42.04
34177;BME280;20450;49.074;9.158;2023-06-14T07:34:11;99443.69;;;23.39;40.94
34177;BME280;20450;49.074;9.158;2023-06-14T07:36:38;99444.59;;;24.07;37.90
34177;BME280;20450;49.074;9.158;2023-06-14T07:39:05;99443.31;;;22.94;38.39
34177;BME280;20450;49.074;9.158;2023-06-14T07:41:34;99454.69;;;23.25;38.84
34177;BME280;20450;49.074;9.158;2023-06-14T07:44:01;99444.50;;;24.25;37.43
34177;BME280;20450;49.074;9.158;2023-06-14T07:46:28;99453.03;;;24.86;36.23
34177;BME280;20450;49.074;9.158;2023-06-14T07:48:55;99453.19;;;25.26;34.92
34177;BME280;20450;49.074;9.158;2023-06-14T07:51:22;99454.88;;;25.57;34.63
34177;BME280;20450;49.074;9.158;2023-06-14T07:53:49;99455.38;;;25.15;34.61
34177;BME280;20450;49.074;9.158;2023-06-14T07:56:16;99461.28;;;25.22;34.22
34177;BME280;20450;49.074;9.158;2023-06-14T07:58:44;99468.81;;;25.30;36.59
34177;BME280;20450;49.074;9.158;2023-06-14T08:04:19;99461.03;;;22.88;39.74
34177;BME280;20450;49.074;9.158;2023-06-14T08:06:49;99454.00;;;24.06;37.80
34177;BME280;20450;49.074;9.158;2023-06-14T08:09:16;99454.81;;;24.82;35.57
34177;BME280;20450;49.074;9.158;2023-06-14T08:11:43;99453.06;;;23.05;38.32
34177;BME280;20450;49.074;9.158;2023-06-14T08:14:12;99462.53;;;23.64;38.00
34177;BME280;20450;49.074;9.158;2023-06-14T08:16:38;99461.53;;;24.27;37.15
34177;BME280;20450;49.074;9.158;2023-06-14T08:19:06;99459.50;;;23.92;36.66
34177;BME280;20450;49.074;9.158;2023-06-14T08:21:33;99468.28;;;24.35;36.45
34177;BME280;20450;49.074;9.158;2023-06-14T08:24:00;99458.06;;;24.35;36.47
34177;BME280;20450;49.074;9.158;2023-06-14T08:26:27;99458.56;;;24.37;36.47
34177;BME280;20450;49.074;9.158;2023-06-14T08:28:54;99461.03;;;23.39;36.89
34177;BME280;20450;49.074;9.158;2023-06-14T08:31:23;99454.06;;;23.87;38.36
34177;BME280;20450;49.074;9.158;2023-06-14T08:37:17;99457.56;;;25.27;35.39
34177;BME280;20450;49.074;9.158;2023-06-14T08:39:44;99453.72;;;25.58;34.88
34177;BME280;20450;49.074;9.158;2023-06-14T08:42:12;99464.81;;;25.14;34.98
34177;BME280;20450;49.074;9.158;2023-06-14T08:44:56;99461.38;;;25.61;35.07
34177;BME280;20450;49.074;9.158;2023-06-14T08:47:26;99473.31;;;25.18;33.79
34177;BME280;20450;49.074;9.158;2023-06-14T08:49:55;99474.19;;;24.69;34.94
34177;BME280;20450;49.074;9.158;2023-06-14T08:52:24;99468.69;;;23.88;37.27
34177;BME280;20450;49.074;9.158;2023-06-14T08:54:53;99460.69;;;24.54;36.16
34177;BME280;20450;49.074;9.158;2023-06-14T08:59:49;99458.72;;;25.03;34.66
34177;BME280;20450;49.074;9.158;2023-06-14T09:02:18;99466.97;;;25.39;33.81
34177;BME280;20450;49.074;9.158;2023-06-14T09:04:46;99460.31;;;24.82;35.60
34177;BME280;20450;49.074;9.158;2023-06-14T09:07:13;99457.03;;;25.38;35.17
34177;BME280;20450;49.074;9.158;2023-06-14T09:09:40;99460.28;;;25.40;34.58
34177;BME280;20450;49.074;9.158;2023-06-14T09:12:31;99460.69;;;25.47;34.04
34177;BME280;20450;49.074;9.158;2023-06-14T09:14:58;99472.13;;;25.32;35.22
34177;BME280;20450;49.074;9.158;2023-06-14T09:17:50;99458.28;;;25.54;34.25
34177;BME280;20450;49.074;9.158;2023-06-14T09:20:19;99462.75;;;25.72;34.23
34177;BME280;20450;49.074;9.158;2023-06-14T09:22:47;99453.22;;;25.87;33.85
34177;BME280;20450;49.074;9.158;2023-06-14T09:25:43;99451.28;;;25.87;33.38
34177;BME280;20450;49.074;9.158;2023-06-14T09:28:13;99456.94;;;25.82;33.65
34177;BME280;20450;49.074;9.158;2023-06-14T09:30:41;99450.47;;;25.95;34.16
34177;BME280;20450;49.074;9.158;2023-06-14T09:33:08;99465.09;;;26.18;33.49
34177;BME280;20450;49.074;9.158;2023-06-14T09:35:37;99460.94;;;24.17;34.05
34177;BME280;20450;49.074;9.158;2023-06-14T09:38:04;99461.94;;;25.19;34.01
34177;BME280;20450;49.074;9.158;2023-06-14T09:40:34;99461.00;;;25.85;33.80
34177;BME280;20450;49.074;9.158;2023-06-14T09:43:03;99465.34;;;25.69;33.24
34177;BME280;20450;49.074;9.158;2023-06-14T09:45:33;99466.56;;;26.24;33.52
34177;BME280;20450;49.074;9.158;2023-06-14T09:48:02;99454.72;;;26.40;32.75
34177;BME280;20450;49.074;9.158;2023-06-14T09:50:34;99456.25;;;26.72;30.90
34177;BME280;20450;49.074;9.158;2023-06-14T09:53:06;99465.06;;;27.00;30.27
34177;BME280;20450;49.074;9.158;2023-06-14T09:55:36;99463.47;;;27.24;30.35
34177;BME280;20450;49.074;9.158;2023-06-14T09:58:06;99464.09;;;26.96;31.38
34177;BME280;20450;49.074;9.158;2023-06-14T10:00:36;99463.94;;;26.83;31.74
34177;BME280;20450;49.074;9.158;2023-06-14T10:03:11;99458.38;;;27.35;31.11
34177;BME280;20450;49.074;9.158;2023-06-14T10:06:03;99448.00;;;27.69;30.51
34177;BME280;20450;49.074;9.158;2023-06-14T10:08:37;99452.75;;;27.69;29.45
34177;BME280;20450;49.074;9.158;2023-06-14T10:11:07;99454.69;;;28.14;29.32
34177;BME280;20450;49.074;9.158;2023-06-14T10:13:35;99449.97;;;28.15;28.30
34177;BME280;20450;49.074;9.158;2023-06-14T10:16:09;99455.44;;;28.61;27.50
34177;BME280;20450;49.074;9.158;2023-06-14T10:18:46;99460.31;;;28.85;26.48
34177;BME280;20450;49.074;9.158;2023-06-14T10:21:36;99462.50;;;26.21;28.53
34177;BME280;20450;49.074;9.158;2023-06-14T10:24:13;99462.13;;;26.79;28.84
34177;BME280;20450;49.074;9.158;2023-06-14T10:26:51;99456.41;;;26.67;28.58
34177;BME280;20450;49.074;9.158;2023-06-14T10:29:24;99464.09;;;26.14;30.53
34177;BME280;20450;49.074;9.158;2023-06-14T10:31:56;99462.81;;;24.57;31.05
34177;BME280;20450;49.074;9.158;2023-06-14T10:34:25;99461.47;;;25.26;32.12
34177;BME280;20450;49.074;9.158;2023-06-14T10:37:11;99458.53;;;25.75;30.84
34177;BME280;20450;49.074;9.158;2023-06-14T10:39:42;99456.75;;;26.74;28.42
34177;BME280;20450;49.074;9.158;2023-06-14T10:42:11;99455.09;;;26.56;28.69
34177;BME280;20450;49.074;9.158;2023-06-14T10:44:41;99453.16;;;27.08;28.43
34177;BME280;20450;49.074;9.158;2023-06-14T10:47:11;99456.41;;;26.02;29.76
34177;BME280;20450;49.074;9.158;2023-06-14T10:49:50;99452.16;;;25.74;29.29
34177;BME280;20450;49.074;9.158;2023-06-14T10:52:21;99448.06;;;26.58;29.33
34177;BME280;20450;49.074;9.158;2023-06-14T10:54:59;99450.03;;;27.43;28.48
34177;BME280;20450;49.074;9.158;2023-06-14T10:57:28;99445.66;;;27.17;28.52
34177;BME280;20450;49.074;9.158;2023-06-14T10:59:55;99440.69;;;28.02;27.73
34177;BME280;20450;49.074;9.158;2023-06-14T11:02:41;99451.31;;;25.13;30.06
34177;BME280;20450;49.074;9.158;2023-06-14T11:05:23;99452.41;;;26.25;29.88
34177;BME280;20450;49.074;9.158;2023-06-14T11:08:02;99458.91;;;25.29;29.15
34177;BME280;20450;49.074;9.158;2023-06-14T11:10:45;99447.06;;;26.46;28.56
34177;BME280;20450;49.074;9.158;2023-06-14T11:13:16;99450.25;;;26.87;28.17
34177;BME280;20450;49.074;9.158;2023-06-14T11:15:45;99453.16;;;27.08;27.41
34177;BME280;20450;49.074;9.158;2023-06-14T11:18:13;99442.03;;;26.56;28.26
34177;BME280;20450;49.074;9.158;2023-06-14T11:20:40;99445.03;;;27.74;26.56
34177;BME280;20450;49.074;9.158;2023-06-14T11:23:07;99441.44;;;26.03;27.68
34177;BME280;20450;49.074;9.158;2023-06-14T11:25:34;99434.09;;;26.98;28.13
34177;BME280;20450;49.074;9.158;2023-06-14T11:28:03;99439.94;;;27.05;27.13
34177;BME280;20450;49.074;9.158;2023-06-14T11:30:30;99444.50;;;27.26;27.32
34177;BME280;20450;49.074;9.158;2023-06-14T11:32:57;99435.56;;;28.71;25.92
34177;BME280;20450;49.074;9.158;2023-06-14T11:35:25;99433.00;;;29.84;24.69
34177;BME280;20450;49.074;9.158;2023-06-14T11:41:12;99426.72;;;31.27;23.25
34177;BME280;20450;49.074;9.158;2023-06-14T11:43:41;99426.47;;;30.65;22.40
34177;BME280;20450;49.074;9.158;2023-06-14T11:46:12;99433.94;;;29.88;24.31
34177;BME280;20450;49.074;9.158;2023-06-14T11:48:42;99448.38;;;27.51;25.72
34177;BME280;20450;49.074;9.158;2023-06-14T11:51:09;99435.53;;;27.38;27.51
34177;BME280;20450;49.074;9.158;2023-06-14T11:53:36;99433.59;;;28.92;26.18
34177;BME280;20450;49.074;9.158;2023-06-14T11:56:04;99432.44;;;29.58;25.04
34177;BME280;20450;49.074;9.158;2023-06-14T11:58:32;99417.59;;;30.35;24.45
34177;BME280;20450;49.074;9.158;2023-06-14T12:01:02;99420.03;;;30.88;23.13
34177;BME280;20450;49.074;9.158;2023-06-14T12:03:30;99432.13;;;31.20;23.17
34177;BME280;20450;49.074;9.158;2023-06-14T12:06:05;99422.28;;;31.10;22.13
34177;BME280;20450;49.074;9.158;2023-06-14T12:08:34;99419.53;;;31.53;22.30
34177;BME280;20450;49.074;9.158;2023-06-14T12:11:02;99419.38;;;32.08;21.09
34177;BME280;20450;49.074;9.158;2023-06-14T12:13:29;99423.25;;;31.57;21.04
34177;BME280;20450;49.074;9.158;2023-06-14T12:15:56;99425.81;;;30.95;22.22
34177;BME280;20450;49.074;9.158;2023-06-14T12:18:33;99419.72;;;30.78;22.41
34177;BME280;20450;49.074;9.158;2023-06-14T12:21:01;99421.41;;;29.94;23.54
34177;BME280;20450;49.074;9.158;2023-06-14T12:23:39;99427.34;;;27.41;25.89
34177;BME280;20450;49.074;9.158;2023-06-14T12:26:09;99423.22;;;28.02;25.37
34177;BME280;20450;49.074;9.158;2023-06-14T12:28:40;99416.31;;;29.07;25.21
34177;BME280;20450;49.074;9.158;2023-06-14T12:31:07;99423.66;;;29.56;23.73
34177;BME280;20450;49.074;9.158;2023-06-14T12:33:36;99413.44;;;29.60;23.87
34177;BME280;20450;49.074;9.158;2023-06-14T12:36:04;99418.22;;;27.95;23.79
34177;BME280;20450;49.074;9.158;2023-06-14T12:38:34;99412.81;;;27.99;25.96
34177;BME280;20450;49.074;9.158;2023-06-14T12:41:01;99404.06;;;28.38;25.84
34177;BME280;20450;49.074;9.158;2023-06-14T12:43:28;99405.44;;;28.52;27.51
34177;BME280;20450;49.074;9.158;2023-06-14T12:45:55;99403.00;;;28.92;26.47
34177;BME280;20450;49.074;9.158;2023-06-14T12:48:22;99404.50;;;28.90;25.31
34177;BME280;20450;49.074;9.158;2023-06-14T12:50:50;99413.44;;;28.54;24.59
34177;BME280;20450;49.074;9.158;2023-06-14T12:53:17;99421.81;;;25.91;27.97
34177;BME280;20450;49.074;9.158;2023-06-14T12:55:44;99411.56;;;25.92;29.85
34177;BME280;20450;49.074;9.158;2023-06-14T12:58:11;99422.00;;;26.68;29.30
34177;BME280;20450;49.074;9.158;2023-06-14T13:00:38;99417.13;;;26.91;28.13
34177;BME280;20450;49.074;9.158;2023-06-14T13:03:05;99419.56;;;27.01;29.16
34177;BME280;20450;49.074;9.158;2023-06-14T13:05:32;99416.31;;;27.24;28.12
34177;BME280;20450;49.074;9.158;2023-06-14T13:08:01;99404.03;;;27.34;29.44
34177;BME280;20450;49.074;9.158;2023-06-14T13:10:28;99420.47;;;26.19;29.00
34177;BME280;20450;49.074;9.158;2023-06-14T13:12:55;99415.53;;;25.69;29.87
34177;BME280;20450;49.074;9.158;2023-06-14T13:15:22;99418.53;;;26.28;27.83
34177;BME280;20450;49.074;9.158;2023-06-14T13:17:49;99412.56;;;26.77;27.67
34177;BME280;20450;49.074;9.158;2023-06-14T13:20:17;99415.81;;;26.97;27.40
34177;BME280;20450;49.074;9.158;2023-06-14T13:22:46;99410.88;;;27.19;27.16
34177;BME280;20450;49.074;9.158;2023-06-14T13:25:15;99412.84;;;27.36;27.66
34177;BME280;20450;49.074;9.158;2023-06-14T13:30:59;99430.75;;;24.83;30.56
34177;BME280;20450;49.074;9.158;2023-06-14T13:33:26;99424.53;;;25.44;31.16
34177;BME280;20450;49.074;9.158;2023-06-14T13:35:53;99435.34;;;25.10;30.77